createdAt,value
2018-12-22T00:08:55.977Z,82.50
2018-12-22T00:11:31.824Z,82.70
2018-12-22T00:14:16.996Z,82.80
2018-12-22T00:17:02.792Z,82.80
2018-12-22T00:19:38.841Z,82.60
2018-12-22T00:22:20.022Z,82.80
2018-12-22T00:25:11.337Z,82.70
2018-12-22T00:27:55.178Z,82.50
2018-12-22T00:33:38.629Z,82.70
2018-12-22T00:36:27.181Z,83.00
2018-12-22T00:39:12.354Z,83.00
2018-12-22T00:44:49.255Z,83.20
2018-12-22T00:47:27.053Z,83.00
2018-12-22T00:50:16.624Z,83.00
2018-12-22T00:53:00.878Z,82.40
2018-12-22T00:55:48.609Z,82.60
2018-12-22T00:58:34.908Z,82.30
2018-12-22T01:01:19.467Z,81.70
2018-12-22T01:04:07.812Z,81.60
2018-12-22T01:10:06.318Z,81.50
2018-12-22T01:12:52.005Z,81.70
2018-12-22T01:15:26.013Z,81.80
2018-12-22T01:18:13.132Z,81.70
2018-12-22T01:20:53.389Z,81.80
2018-12-22T01:23:41.531Z,82.00
2018-12-22T01:26:28.444Z,82.10
2018-12-22T01:29:19.249Z,82.30
2018-12-22T01:32:11.479Z,82.80
2018-12-22T01:34:57.583Z,83.10
2018-12-22T01:37:41.629Z,83.20
2018-12-22T01:40:20.039Z,83.00
2018-12-22T01:43:00.194Z,82.80
2018-12-22T01:45:45.167Z,82.70
2018-12-22T01:48:35.970Z,82.40
2018-12-22T01:51:16.843Z,82.20
2018-12-22T01:54:00.376Z,82.20
2018-12-22T01:56:41.453Z,82.20
2018-12-22T01:59:24.886Z,82.10
2018-12-22T02:02:07.600Z,81.90
2018-12-22T02:04:45.503Z,82.20
2018-12-22T02:07:31.399Z,82.30
2018-12-22T02:10:17.487Z,82.40
2018-12-22T02:12:59.996Z,83.10
2018-12-22T02:18:23.535Z,82.10
2018-12-22T02:21:00.565Z,82.10
2018-12-22T02:23:45.330Z,82.00
2018-12-22T02:26:23.180Z,81.70
2018-12-22T02:28:59.905Z,82.10
2018-12-22T02:31:42.004Z,82.00
2018-12-22T02:34:24.105Z,82.20
2018-12-22T02:37:08.663Z,82.50
2018-12-22T02:39:45.454Z,82.40
2018-12-22T02:42:28.973Z,82.80
2018-12-22T02:45:13.635Z,82.90
2018-12-22T02:48:00.138Z,83.50
2018-12-22T02:50:40.089Z,83.40
2018-12-22T02:53:16.249Z,83.60
2018-12-22T02:56:00.910Z,84.10
2018-12-22T02:58:39.433Z,85.10
2018-12-22T03:01:15.363Z,86.30
2018-12-22T03:03:59.819Z,86.80
2018-12-22T03:06:43.761Z,88.20
2018-12-22T03:09:35.386Z,87.70
2018-12-22T03:12:25.802Z,87.50
2018-12-22T03:15:14.456Z,88.40
2018-12-22T03:21:06.307Z,88.00
2018-12-22T03:23:42.137Z,87.80
2018-12-22T03:26:32.530Z,86.70
2018-12-22T03:29:24.972Z,86.50
2018-12-22T03:46:59.391Z,86.60
2018-12-22T03:52:44.006Z,86.30
2018-12-22T03:55:35.183Z,86.00
2018-12-22T03:58:23.972Z,86.00
2018-12-22T04:01:03.991Z,85.60
2018-12-22T04:03:55.308Z,85.70
2018-12-22T04:10:05.077Z,85.10
2018-12-22T04:16:00.184Z,85.20
2018-12-22T04:18:49.367Z,85.70
2018-12-22T04:21:39.765Z,86.50
2018-12-22T04:40:24.018Z,88.70
2018-12-22T04:49:35.349Z,88.60
2018-12-22T05:11:26.376Z,87.60
2018-12-22T05:14:18.101Z,87.60
2018-12-22T05:17:07.782Z,87.60
2018-12-22T05:41:50.130Z,87.30
2018-12-22T06:00:16.676Z,88.40
2018-12-22T06:20:10.467Z,86.60
2018-12-22T06:29:08.479Z,84.70
2018-12-22T06:44:14.401Z,86.60
2018-12-22T06:50:03.484Z,86.50
2018-12-22T07:05:25.229Z,84.90
2018-12-22T07:08:03.497Z,84.70
2018-12-22T07:16:44.823Z,84.30
2018-12-22T07:19:30.890Z,83.90
2018-12-22T07:22:16.915Z,83.70
2018-12-22T07:42:47.542Z,83.10
2018-12-22T07:45:57.165Z,81.50
2018-12-22T07:57:46.930Z,80.50
2018-12-22T08:00:35.108Z,81.20
2018-12-22T08:19:15.793Z,79.10
2018-12-22T08:25:22.113Z,78.60
2018-12-22T08:28:14.890Z,79.10
2018-12-22T08:30:58.607Z,78.70
2018-12-22T08:40:14.133Z,78.10
2018-12-22T08:54:39.922Z,78.10
2018-12-22T08:57:22.471Z,77.80
2018-12-22T08:59:57.379Z,77.50
2018-12-22T09:02:33.254Z,77.40
2018-12-22T09:05:06.597Z,77.50
2018-12-22T09:07:43.598Z,78.10
2018-12-22T09:10:24.933Z,78.40
2018-12-22T09:13:03.355Z,77.80
2018-12-22T09:15:48.930Z,77.70
2018-12-22T09:18:31.682Z,77.50
2018-12-22T09:21:15.318Z,77.40
2018-12-22T09:23:49.362Z,77.60
2018-12-22T09:26:30.710Z,76.90
2018-12-22T09:29:07.986Z,76.40
2018-12-22T09:31:42.853Z,76.00
2018-12-22T09:34:30.817Z,75.90
2018-12-22T09:37:07.317Z,77.10
2018-12-22T09:39:51.706Z,76.00
2018-12-22T09:42:33.415Z,76.30
2018-12-22T09:45:06.866Z,76.00
2018-12-22T09:47:49.389Z,76.30
2018-12-22T09:50:26.006Z,77.30
2018-12-22T09:55:59.850Z,77.60
2018-12-22T09:58:42.517Z,77.20
2018-12-22T10:01:23.229Z,77.10
2018-12-22T10:04:02.403Z,77.90
2018-12-22T10:06:40.763Z,78.40
2018-12-22T10:09:24.224Z,79.70
2018-12-22T10:12:02.987Z,81.10
2018-12-22T10:14:38.375Z,83.10
2018-12-22T10:17:15.415Z,83.00
2018-12-22T10:19:54.464Z,82.80
2018-12-22T10:22:40.076Z,82.20
2018-12-22T10:25:12.421Z,81.60
2018-12-22T10:27:53.194Z,82.50
2018-12-22T10:30:30.435Z,82.20
2018-12-22T10:33:10.219Z,81.00
2018-12-22T10:35:51.570Z,81.50
2018-12-22T10:38:37.727Z,78.70
2018-12-22T10:41:20.690Z,80.10
2018-12-22T10:44:06.244Z,81.10
2018-12-22T10:46:44.738Z,79.90
2018-12-22T10:49:27.403Z,80.80
2018-12-22T10:52:06.137Z,81.20
2018-12-22T10:54:41.138Z,81.70
2018-12-22T10:57:23.028Z,82.10
2018-12-22T11:00:01.202Z,82.20
2018-12-22T11:02:37.703Z,82.90
2018-12-22T11:05:10.748Z,81.90
2018-12-22T11:07:52.722Z,83.20
2018-12-22T11:10:39.044Z,82.50
2018-12-22T11:13:12.561Z,83.40
2018-12-22T11:15:52.046Z,82.60
2018-12-22T11:18:33.791Z,82.10
2018-12-22T11:24:21.331Z,81.50
2018-12-22T11:27:08.125Z,81.20
2018-12-22T11:29:41.982Z,80.90
2018-12-22T11:32:29.531Z,80.40
2018-12-22T11:35:10.654Z,81.10
2018-12-22T11:37:49.749Z,80.50
2018-12-22T11:40:28.584Z,79.90
2018-12-22T11:43:10.062Z,79.50
2018-12-22T11:45:51.947Z,80.00
2018-12-22T11:48:30.483Z,79.10
2018-12-22T11:51:18.288Z,79.10
2018-12-22T11:57:12.435Z,77.80
2018-12-22T11:59:55.838Z,78.30
2018-12-22T12:05:32.024Z,77.20
2018-12-22T12:08:07.572Z,76.80
2018-12-22T12:10:45.045Z,76.80
2018-12-22T12:13:18.746Z,76.80
2018-12-22T12:16:00.701Z,76.60
2018-12-22T12:18:47.757Z,76.10
2018-12-22T12:21:24.586Z,76.90
2018-12-22T12:23:56.141Z,75.90
2018-12-22T12:26:46.090Z,75.90
2018-12-22T12:29:34.130Z,76.10
2018-12-22T12:32:12.646Z,76.30
2018-12-22T12:34:47.214Z,75.80
2018-12-22T12:37:28.827Z,76.70
2018-12-22T12:40:01.898Z,76.30
2018-12-22T12:42:45.106Z,77.20
2018-12-22T12:45:26.622Z,77.20
2018-12-22T12:48:05.488Z,77.60
2018-12-22T12:50:43.295Z,80.20
2018-12-22T12:53:15.736Z,81.50
2018-12-22T12:58:48.721Z,82.70
2018-12-22T13:01:26.535Z,81.80
2018-12-22T13:03:59.992Z,82.70
2018-12-22T13:06:42.277Z,81.20
2018-12-22T13:09:30.107Z,82.30
2018-12-22T13:12:11.983Z,82.70
2018-12-22T13:14:46.221Z,84.50
2018-12-22T13:17:30.430Z,82.50
2018-12-22T13:23:10.873Z,83.40
2018-12-22T13:25:47.359Z,81.30
2018-12-22T13:34:16.563Z,82.10
2018-12-22T13:37:06.981Z,82.50
2018-12-22T13:43:02.898Z,82.80
2018-12-22T13:45:48.674Z,83.50
2018-12-22T13:48:24.031Z,82.90
2018-12-22T13:51:06.254Z,82.70
2018-12-22T14:03:45.001Z,85.30
2018-12-22T14:09:37.529Z,85.80
2018-12-22T14:12:30.552Z,86.10
2018-12-22T14:15:11.826Z,85.90
2018-12-22T14:20:56.485Z,84.20
2018-12-22T14:23:47.339Z,84.90
2018-12-22T14:29:28.377Z,84.30
2018-12-22T14:38:24.001Z,83.20
2018-12-22T14:41:07.054Z,81.60
2018-12-22T14:43:53.737Z,81.50
2018-12-22T14:46:37.209Z,80.90
2018-12-22T14:49:16.647Z,81.40
2018-12-22T14:55:00.525Z,80.40
2018-12-22T15:00:25.879Z,81.30
2018-12-22T15:03:01.283Z,82.10
2018-12-22T15:05:43.625Z,81.20
2018-12-22T15:08:26.987Z,81.20
2018-12-22T15:11:09.495Z,81.50
2018-12-22T15:13:41.805Z,81.70
2018-12-22T15:16:23.101Z,81.70
2018-12-22T15:19:00.389Z,82.30
2018-12-22T15:21:39.037Z,83.00
2018-12-22T15:24:14.066Z,83.20
2018-12-22T15:26:53.252Z,83.80
2018-12-22T15:29:36.274Z,83.80
2018-12-22T15:35:09.239Z,83.50
2018-12-22T15:37:48.698Z,83.50
2018-12-22T15:40:34.189Z,82.70
2018-12-22T15:43:07.171Z,81.90
2018-12-22T15:45:45.914Z,81.80
2018-12-22T15:48:30.993Z,81.40
2018-12-22T15:51:20.596Z,82.20
2018-12-22T15:54:09.310Z,82.00
2018-12-22T15:57:04.183Z,81.80
2018-12-22T18:13:07.762Z,82.10
